Time;durP1;ratioP1;P1;durP2;ratioP2;P2;SDS_P1;SDS_P2;PMS_P1;PMS_P2;Temp;Humidity;BMP_temperature;BMP_pressure;BME280_temperature;BME280_humidity;BME280_pressure;Samples;Min_cycle;Max_cycle;Signal;HPM_P1;HPM_P2
2023/02/13 00:00:01;;;;;;;7.07;4.53;;;;;;;;;;5128626;27;20045;-73
2023/02/13 00:02:27;;;;;;;11.05;5.05;;;;;;;;;;5136793;27;20053;-73
2023/02/13 00:04:53;;;;;;;6.97;4.53;;;;;;;;;;5141639;27;20115;-72
2023/02/13 00:07:20;;;;;;;9.65;4.60;;;;;;;;;;5129136;27;20019;-73
2023/02/13 00:09:46;;;;;;;9.30;4.65;;;;;;;;;;5130355;27;20020;-73
2023/02/13 00:12:12;;;;;;;8.43;4.22;;;;;;;;;;5137318;27;20026;-73
2023/02/13 00:14:38;;;;;;;6.18;4.18;;;;;;;;;;5128024;27;20031;-77
2023/02/13 00:17:05;;;;;;;7.97;4.00;;;;;;;;;;5131956;27;20088;-73
2023/02/13 00:19:31;;;;;;;6.03;3.92;;;;;;;;;;5137303;27;20602;-72
2023/02/13 00:21:57;;;;;;;6.30;3.67;;;;;;;;;;5136195;27;20585;-72
2023/02/13 00:24:24;;;;;;;7.25;3.58;;;;;;;;;;5137562;27;20824;-72
2023/02/13 00:26:50;;;;;;;10.68;4.03;;;;;;;;;;5134275;27;20038;-73
2023/02/13 00:29:16;;;;;;;7.47;3.97;;;;;;;;;;5139456;27;20035;-73
2023/02/13 00:31:42;;;;;;;7.20;4.32;;;;;;;;;;5138876;27;20026;-72
2023/02/13 00:34:08;;;;;;;8.15;4.10;;;;;;;;;;5143898;27;20027;-72
2023/02/13 00:36:34;;;;;;;6.90;4.07;;;;;;;;;;5135485;27;20022;-72
2023/02/13 00:39:01;;;;;;;6.05;3.38;;;;;;;;;;5135454;27;20043;-72
2023/02/13 00:41:27;;;;;;;6.75;3.85;;;;;;;;;;5118237;27;20023;-72
2023/02/13 00:43:53;;;;;;;8.52;3.95;;;;;;;;;;5141847;27;20026;-73
2023/02/13 00:46:19;;;;;;;6.95;3.97;;;;;;;;;;5137530;27;20019;-72
2023/02/13 00:48:45;;;;;;;7.07;4.55;;;;;;;;;;5140057;27;20023;-73
2023/02/13 00:51:12;;;;;;;6.70;3.80;;;;;;;;;;5141077;27;20078;-72
2023/02/13 00:53:38;;;;;;;5.47;3.90;;;;;;;;;;5140619;27;20031;-72
2023/02/13 00:56:05;;;;;;;7.82;4.40;;;;;;;;;;5137959;27;20087;-73
2023/02/13 00:58:32;;;;;;;7.43;4.25;;;;;;;;;;5141870;27;20033;-72
2023/02/13 01:00:58;;;;;;;6.05;4.07;;;;;;;;;;5140032;27;20047;-73
2023/02/13 01:03:24;;;;;;;6.18;3.75;;;;;;;;;;5133124;27;20031;-73
2023/02/13 01:05:51;;;;;;;4.93;3.67;;;;;;;;;;5138111;27;20015;-73
2023/02/13 01:08:18;;;;;;;5.78;3.90;;;;;;;;;;5137647;27;20065;-72
2023/02/13 01:10:45;;;;;;;12.35;4.13;;;;;;;;;;5142880;27;20019;-73
2023/02/13 01:13:12;;;;;;;8.52;3.90;;;;;;;;;;5133615;27;20104;-72
2023/02/13 01:15:39;;;;;;;5.35;3.75;;;;;;;;;;5137935;27;20038;-72
2023/02/13 01:18:06;;;;;;;7.10;4.32;;;;;;;;;;5136318;27;20019;-73
2023/02/13 01:20:32;;;;;;;7.30;4.60;;;;;;;;;;5138205;27;20161;-75
2023/02/13 01:22:58;;;;;;;6.55;4.00;;;;;;;;;;5137021;27;20513;-72
2023/02/13 01:25:26;;;;;;;8.07;4.53;;;;;;;;;;5136330;27;20126;-73
2023/02/13 01:27:52;;;;;;;6.50;4.45;;;;;;;;;;5139154;27;20462;-73
2023/02/13 01:30:18;;;;;;;7.50;4.63;;;;;;;;;;5143597;27;20049;-73
2023/02/13 01:32:45;;;;;;;7.85;4.35;;;;;;;;;;5136443;27;20035;-73
2023/02/13 01:35:12;;;;;;;9.85;4.88;;;;;;;;;;5141189;27;20031;-73
2023/02/13 01:37:39;;;;;;;7.25;4.32;;;;;;;;;;5133661;27;20106;-73
2023/02/13 01:40:05;;;;;;;7.85;4.88;;;;;;;;;;5131875;27;20031;-73
2023/02/13 01:42:32;;;;;;;7.57;4.28;;;;;;;;;;5133258;27;20015;-73
2023/02/13 01:45:00;;;;;;;8.73;3.95;;;;;;;;;;5139342;27;20112;-72
2023/02/13 01:47:27;;;;;;;8.65;5.20;;;;;;;;;;5140221;27;20071;-74
2023/02/13 01:50:05;;;;;;;9.60;4.80;;;;;;;;;;5142564;27;20428;-77
2023/02/13 01:52:31;;;;;;;8.50;5.13;;;;;;;;;;5120466;27;20027;-73
2023/02/13 01:54:57;;;;;;;8.18;5.43;;;;;;;;;;5137219;27;20053;-73
2023/02/13 01:57:26;;;;;;;10.43;4.88;;;;;;;;;;5137945;27;20487;-72
2023/02/13 01:59:55;;;;;;;6.53;4.97;;;;;;;;;;5138201;27;20418;-72
2023/02/13 02:02:21;;;;;;;6.78;4.60;;;;;;;;;;5144628;27;20027;-73
2023/02/13 02:04:48;;;;;;;9.70;5.53;;;;;;;;;;5134595;27;20387;-72
2023/02/13 02:07:19;;;;;;;8.40;5.22;;;;;;;;;;5140845;27;20705;-73
2023/02/13 02:09:46;;;;;;;7.20;4.90;;;;;;;;;;5133320;27;20026;-72
2023/02/13 02:12:48;;;;;;;6.72;4.88;;;;;;;;;;5138527;27;20119;-79
2023/02/13 02:15:15;;;;;;;8.75;4.50;;;;;;;;;;5062489;28;20033;-72
2023/02/13 02:17:41;;;;;;;6.97;5.05;;;;;;;;;;5127659;27;20031;-72
2023/02/13 02:20:10;;;;;;;9.20;5.30;;;;;;;;;;5141129;27;20057;-73
2023/02/13 02:22:42;;;;;;;9.75;5.22;;;;;;;;;;5141612;27;20536;-73
2023/02/13 02:25:30;;;;;;;7.70;4.68;;;;;;;;;;5138239;27;20020;-72
2023/02/13 02:28:05;;;;;;;9.63;4.50;;;;;;;;;;5139581;27;20022;-73
2023/02/13 02:30:50;;;;;;;6.93;4.53;;;;;;;;;;5135624;27;20023;-72
2023/02/13 02:33:34;;;;;;;8.70;5.13;;;;;;;;;;5132199;27;20021;-73
2023/02/13 02:36:21;;;;;;;8.15;4.97;;;;;;;;;;5135155;27;20015;-74
2023/02/13 02:38:47;;;;;;;7.70;4.78;;;;;;;;;;5134185;27;20039;-72
2023/02/13 02:41:40;;;;;;;7.43;4.30;;;;;;;;;;5136164;27;20015;-74
2023/02/13 02:44:06;;;;;;;8.60;4.80;;;;;;;;;;5129201;27;20026;-72
2023/02/13 02:46:37;;;;;;;5.95;4.47;;;;;;;;;;5138954;27;20017;-73
2023/02/13 02:52:03;;;;;;;10.23;4.80;;;;;;;;;;5131940;27;20067;-73
2023/02/13 03:14:03;;;;;;;6.55;4.63;;;;;;;;;;5134306;27;20026;-73
2023/02/13 03:22:20;;;;;;;;;;;;;;;;;;5134684;27;20091;-73
2023/02/13 03:25:04;;;;;;;5.80;4.20;;;;;;;;;;5137135;27;19907;-72
2023/02/13 03:30:25;;;;;;;7.47;4.40;;;;;;;;;;5141913;27;20038;-73
2023/02/13 03:33:10;;;;;;;7.32;4.00;;;;;;;;;;5135267;27;20023;-72
2023/02/13 03:38:41;;;;;;;6.85;3.50;;;;;;;;;;5130106;27;20046;-73
2023/02/13 03:41:19;;;;;;;4.75;3.20;;;;;;;;;;5138415;27;20728;-73
2023/02/13 03:43:58;;;;;;;6.85;3.58;;;;;;;;;;5130986;27;20015;-73
2023/02/13 03:46:26;;;;;;;6.20;3.30;;;;;;;;;;5137509;27;20053;-73
2023/02/13 03:51:39;;;;;;;6.03;2.88;;;;;;;;;;5134885;27;20042;-73
2023/02/13 03:54:08;;;;;;;5.50;3.65;;;;;;;;;;5135970;27;20015;-73
2023/02/13 03:59:25;;;;;;;4.20;2.95;;;;;;;;;;5139012;27;20102;-79
2023/02/13 04:01:59;;;;;;;5.68;3.05;;;;;;;;;;5144853;27;20018;-73
2023/02/13 04:04:35;;;;;;;6.25;3.03;;;;;;;;;;5137833;27;20028;-73
2023/02/13 04:07:04;;;;;;;3.80;2.58;;;;;;;;;;5135370;27;20101;-74
2023/02/13 04:09:31;;;;;;;4.57;2.30;;;;;;;;;;5138087;27;20019;-73
2023/02/13 04:11:57;;;;;;;6.13;2.53;;;;;;;;;;5131573;27;20043;-73
2023/02/13 04:14:26;;;;;;;4.47;2.40;;;;;;;;;;5136527;27;20016;-73
2023/02/13 04:16:55;;;;;;;4.07;2.00;;;;;;;;;;5138694;27;20101;-73
2023/02/13 04:19:22;;;;;;;6.15;2.08;;;;;;;;;;5139489;27;20114;-73
2023/02/13 04:21:49;;;;;;;4.05;2.13;;;;;;;;;;5138988;27;20383;-73
2023/02/13 04:24:15;;;;;;;4.55;2.13;;;;;;;;;;5120503;27;20027;-73
2023/02/13 04:26:43;;;;;;;2.58;1.58;;;;;;;;;;5135330;27;20019;-73
2023/02/13 04:29:09;;;;;;;6.88;2.50;;;;;;;;;;5134312;27;20038;-73
2023/02/13 04:31:35;;;;;;;7.63;2.92;;;;;;;;;;5122954;27;20023;-73
2023/02/13 04:34:01;;;;;;;3.90;2.15;;;;;;;;;;5138297;27;20030;-73
2023/02/13 04:36:27;;;;;;;3.03;2.35;;;;;;;;;;5133169;27;20020;-73
2023/02/13 04:38:54;;;;;;;3.40;2.20;;;;;;;;;;5128565;27;20042;-73
2023/02/13 04:41:20;;;;;;;4.55;2.35;;;;;;;;;;5132570;27;20068;-73
2023/02/13 04:43:46;;;;;;;6.03;2.17;;;;;;;;;;5128939;27;20038;-73
2023/02/13 04:46:12;;;;;;;4.57;3.03;;;;;;;;;;5132864;27;20023;-73
2023/02/13 04:48:38;;;;;;;3.75;2.10;;;;;;;;;;5141098;27;20026;-73
2023/02/13 04:51:04;;;;;;;4.70;1.95;;;;;;;;;;5132484;27;20128;-73
2023/02/13 04:53:31;;;;;;;6.95;2.47;;;;;;;;;;5133412;27;20039;-73
2023/02/13 04:55:57;;;;;;;8.50;2.70;;;;;;;;;;5133348;27;20021;-73
2023/02/13 04:58:23;;;;;;;5.63;2.35;;;;;;;;;;5136287;27;20130;-73
2023/02/13 05:00:49;;;;;;;4.93;2.30;;;;;;;;;;5141323;27;20023;-73
2023/02/13 05:03:15;;;;;;;5.32;2.22;;;;;;;;;;5136810;27;20026;-73
2023/02/13 05:05:42;;;;;;;4.55;2.38;;;;;;;;;;5137649;27;20027;-73
2023/02/13 05:08:08;;;;;;;3.78;2.65;;;;;;;;;;5130062;27;20063;-73
2023/02/13 05:10:35;;;;;;;4.75;2.30;;;;;;;;;;5120761;27;20019;-73
2023/02/13 05:13:01;;;;;;;4.05;2.35;;;;;;;;;;5134465;27;20098;-73
2023/02/13 05:15:28;;;;;;;6.68;2.15;;;;;;;;;;5138016;27;20102;-74
2023/02/13 05:17:54;;;;;;;3.83;2.17;;;;;;;;;;5128609;27;20034;-73
2023/02/13 05:20:20;;;;;;;5.95;2.22;;;;;;;;;;5134732;27;20031;-73
2023/02/13 05:25:32;;;;;;;4.85;2.55;;;;;;;;;;5141482;27;20033;-73
2023/02/13 05:27:59;;;;;;;5.55;2.50;;;;;;;;;;5129442;27;20027;-73
2023/02/13 05:30:25;;;;;;;3.97;2.15;;;;;;;;;;5132365;27;20383;-73
2023/02/13 05:32:51;;;;;;;6.38;2.70;;;;;;;;;;5136593;27;20218;-73
2023/02/13 05:35:21;;;;;;;3.47;2.15;;;;;;;;;;5139228;27;20041;-73
2023/02/13 05:37:48;;;;;;;4.93;2.90;;;;;;;;;;5133049;27;20027;-73
2023/02/13 05:40:14;;;;;;;5.97;2.55;;;;;;;;;;5133092;27;20037;-73
2023/02/13 05:42:41;;;;;;;6.35;2.80;;;;;;;;;;5126643;27;20094;-73
2023/02/13 05:45:08;;;;;;;3.92;2.22;;;;;;;;;;5133871;27;20034;-73
2023/02/13 05:47:34;;;;;;;6.63;2.40;;;;;;;;;;5131357;27;20091;-73
2023/02/13 05:50:00;;;;;;;6.75;3.25;;;;;;;;;;5140000;27;20165;-73
2023/02/13 05:52:26;;;;;;;8.50;2.63;;;;;;;;;;5137485;27;20092;-73
2023/02/13 05:54:52;;;;;;;4.40;2.40;;;;;;;;;;5133577;27;20056;-73
2023/02/13 05:57:19;;;;;;;3.80;2.20;;;;;;;;;;5134778;27;20034;-73
2023/02/13 05:59:45;;;;;;;4.80;2.15;;;;;;;;;;5131312;27;20022;-73
2023/02/13 06:02:11;;;;;;;5.07;2.47;;;;;;;;;;5140670;27;20030;-73
2023/02/13 06:04:38;;;;;;;3.60;2.58;;;;;;;;;;5135239;27;20030;-71
2023/02/13 06:07:04;;;;;;;8.88;2.58;;;;;;;;;;5141048;27;20056;-71
2023/02/13 06:09:30;;;;;;;4.57;2.38;;;;;;;;;;5143942;27;20030;-72
2023/02/13 06:11:56;;;;;;;3.60;2.15;;;;;;;;;;5135521;27;20047;-71
2023/02/13 06:14:22;;;;;;;6.25;2.50;;;;;;;;;;5134133;27;20022;-72
2023/02/13 06:16:49;;;;;;;3.50;2.40;;;;;;;;;;5132490;27;20042;-71
2023/02/13 06:19:15;;;;;;;4.97;2.78;;;;;;;;;;5132704;27;20042;-71
2023/02/13 06:21:41;;;;;;;6.05;2.60;;;;;;;;;;5125314;27;20047;-71
2023/02/13 06:24:07;;;;;;;3.75;2.20;;;;;;;;;;5141207;27;20376;-71
2023/02/13 06:26:34;;;;;;;5.25;2.63;;;;;;;;;;5129748;27;20027;-71
2023/02/13 06:29:00;;;;;;;2.75;2.00;;;;;;;;;;5132398;27;20165;-73
2023/02/13 06:31:26;;;;;;;2.65;2.00;;;;;;;;;;5133640;27;20390;-72
2023/02/13 06:33:53;;;;;;;6.30;2.47;;;;;;;;;;5142468;27;20631;-72
2023/02/13 06:36:19;;;;;;;3.92;2.40;;;;;;;;;;5136753;27;20049;-73
2023/02/13 06:38:45;;;;;;;4.25;2.63;;;;;;;;;;5136375;27;20026;-77
2023/02/13 06:41:11;;;;;;;4.53;2.72;;;;;;;;;;5143000;27;20023;-72
2023/02/13 06:43:37;;;;;;;5.65;2.67;;;;;;;;;;5143268;27;20114;-79
2023/02/13 06:46:07;;;;;;;5.97;3.22;;;;;;;;;;5143639;27;20026;-72
2023/02/13 06:48:33;;;;;;;3.60;2.30;;;;;;;;;;5137779;27;20390;-72
2023/02/13 06:51:02;;;;;;;3.78;2.50;;;;;;;;;;5130263;27;20129;-78
2023/02/13 06:53:29;;;;;;;3.13;2.40;;;;;;;;;;5108092;27;20087;-73
2023/02/13 06:55:56;;;;;;;5.10;3.40;;;;;;;;;;5129244;27;20071;-80
2023/02/13 06:58:23;;;;;;;6.35;3.67;;;;;;;;;;5125142;27;20031;-75
2023/02/13 07:00:50;;;;;;;6.45;3.40;;;;;;;;;;5127460;27;20029;-72
2023/02/13 07:03:16;;;;;;;6.85;4.50;;;;;;;;;;5130224;27;20022;-77
2023/02/13 07:05:43;;;;;;;6.43;4.35;;;;;;;;;;5126014;27;20553;-72
2023/02/13 07:08:09;;;;;;;9.23;4.55;;;;;;;;;;5129910;27;20012;-73
2023/02/13 07:10:39;;;;;;;7.13;4.00;;;;;;;;;;5107268;27;20027;-72
2023/02/13 07:13:06;;;;;;;6.07;3.30;;;;;;;;;;5128313;27;20077;-72
2023/02/13 07:15:33;;;;;;;6.20;3.17;;;;;;;;;;5124620;27;20031;-72
2023/02/13 07:17:59;;;;;;;6.32;2.90;;;;;;;;;;5128712;27;20044;-72
2023/02/13 07:20:26;;;;;;;4.32;2.90;;;;;;;;;;5116305;27;20132;-73
2023/02/13 07:22:52;;;;;;;3.75;2.72;;;;;;;;;;5126838;27;20029;-71
2023/02/13 07:25:19;;;;;;;4.60;3.03;;;;;;;;;;5132080;27;20578;-72
2023/02/13 07:27:45;;;;;;;3.42;2.40;;;;;;;;;;5126961;27;20019;-73
2023/02/13 07:30:11;;;;;;;4.20;2.42;;;;;;;;;;5130355;27;20088;-72
2023/02/13 07:32:38;;;;;;;4.00;2.55;;;;;;;;;;5134610;27;20027;-82
2023/02/13 07:35:04;;;;;;;7.15;2.35;;;;;;;;;;5127200;27;20027;-73
2023/02/13 07:37:31;;;;;;;3.85;2.15;;;;;;;;;;5128182;27;20393;-82
2023/02/13 07:39:57;;;;;;;3.13;2.25;;;;;;;;;;5129846;27;20031;-76
2023/02/13 07:42:23;;;;;;;3.38;2.22;;;;;;;;;;5126944;27;20027;-80
2023/02/13 07:44:49;;;;;;;3.63;2.30;;;;;;;;;;5127937;27;20023;-80
2023/02/13 07:47:16;;;;;;;3.05;2.20;;;;;;;;;;5115864;27;20134;-76
2023/02/13 07:49:43;;;;;;;3.63;2.30;;;;;;;;;;5131212;27;20025;-82
2023/02/13 07:52:09;;;;;;;3.92;2.42;;;;;;;;;;5129137;27;20016;-81
2023/02/13 07:54:36;;;;;;;4.82;3.20;;;;;;;;;;5128989;27;20022;-80
2023/02/13 07:57:04;;;;;;;4.03;2.42;;;;;;;;;;5128088;27;20019;-74
2023/02/13 07:59:30;;;;;;;3.88;2.35;;;;;;;;;;5127258;27;20041;-77
2023/02/13 08:01:56;;;;;;;3.40;2.38;;;;;;;;;;5123689;27;20680;-73
2023/02/13 08:04:22;;;;;;;3.83;2.47;;;;;;;;;;5126044;27;20390;-72
2023/02/13 08:06:48;;;;;;;3.53;2.40;;;;;;;;;;5132235;27;20102;-82
2023/02/13 08:12:04;;;;;;;3.70;2.60;;;;;;;;;;5134443;27;20521;-81
2023/02/13 08:14:30;;;;;;;5.03;2.63;;;;;;;;;;5126115;27;20027;-74
2023/02/13 08:16:58;;;;;;;3.97;2.38;;;;;;;;;;5130167;27;20023;-83
2023/02/13 08:19:24;;;;;;;5.30;2.55;;;;;;;;;;5126107;27;20638;-83
2023/02/13 08:21:50;;;;;;;4.25;2.60;;;;;;;;;;5126589;27;20042;-80
2023/02/13 08:24:16;;;;;;;8.30;2.88;;;;;;;;;;5134722;27;20026;-74
2023/02/13 08:26:42;;;;;;;6.43;2.78;;;;;;;;;;5127961;27;20027;-73
2023/02/13 08:29:10;;;;;;;6.72;2.58;;;;;;;;;;5132708;27;20031;-74
2023/02/13 08:31:36;;;;;;;3.80;2.25;;;;;;;;;;5125798;27;20486;-72
2023/02/13 08:34:02;;;;;;;4.13;2.70;;;;;;;;;;5131634;27;20026;-76
2023/02/13 08:36:28;;;;;;;6.10;2.67;;;;;;;;;;5130502;27;20031;-76
2023/02/13 08:38:54;;;;;;;9.70;3.03;;;;;;;;;;5130297;27;20034;-72
2023/02/13 08:41:21;;;;;;;4.47;2.65;;;;;;;;;;5127585;27;20011;-74
2023/02/13 08:43:48;;;;;;;5.30;2.78;;;;;;;;;;5138130;27;20551;-72
2023/02/13 08:46:15;;;;;;;3.95;2.50;;;;;;;;;;5130870;27;20151;-72
2023/02/13 08:48:41;;;;;;;5.22;2.50;;;;;;;;;;5133231;27;20378;-71
2023/02/13 08:51:08;;;;;;;5.90;2.95;;;;;;;;;;5126346;27;20019;-76
2023/02/13 08:53:34;;;;;;;5.30;2.83;;;;;;;;;;5134142;27;20018;-73
2023/02/13 08:56:00;;;;;;;5.93;2.20;;;;;;;;;;5134073;27;20395;-73
2023/02/13 08:58:27;;;;;;;6.85;3.03;;;;;;;;;;5133149;27;20106;-72
2023/02/13 09:00:53;;;;;;;10.02;2.83;;;;;;;;;;5132196;27;20027;-72
2023/02/13 09:03:19;;;;;;;16.27;3.80;;;;;;;;;;5131254;27;20022;-80
2023/02/13 09:05:46;;;;;;;3.17;2.45;;;;;;;;;;5115196;27;20109;-72
2023/02/13 09:08:12;;;;;;;3.85;2.42;;;;;;;;;;5127140;27;20015;-73
2023/02/13 09:10:39;;;;;;;3.72;2.33;;;;;;;;;;5133318;27;20027;-78
2023/02/13 09:13:05;;;;;;;3.53;2.50;;;;;;;;;;5126238;27;20585;-75
2023/02/13 09:15:32;;;;;;;5.60;2.83;;;;;;;;;;5112502;27;20030;-73
2023/02/13 09:17:58;;;;;;;5.72;2.80;;;;;;;;;;5133475;27;20035;-72
2023/02/13 09:20:24;;;;;;;3.83;2.63;;;;;;;;;;5130119;27;20043;-72
2023/02/13 09:22:50;;;;;;;4.22;2.60;;;;;;;;;;5132786;27;20378;-72
2023/02/13 09:25:19;;;;;;;6.18;2.53;;;;;;;;;;5128886;27;20019;-72
2023/02/13 09:27:45;;;;;;;4.32;2.38;;;;;;;;;;5132757;27;20049;-72
2023/02/13 09:30:17;;;;;;;4.47;2.38;;;;;;;;;;5113307;27;20558;-72
2023/02/13 09:32:43;;;;;;;7.60;3.15;;;;;;;;;;5132757;27;20618;-79
2023/02/13 09:35:09;;;;;;;8.00;2.92;;;;;;;;;;5132138;27;20044;-73
2023/02/13 09:37:36;;;;;;;8.07;2.78;;;;;;;;;;5132833;27;20034;-80
2023/02/13 09:40:03;;;;;;;7.25;3.25;;;;;;;;;;5128544;27;20095;-79
2023/02/13 09:42:32;;;;;;;4.03;2.88;;;;;;;;;;5130997;27;20027;-73
2023/02/13 09:45:01;;;;;;;4.93;3.10;;;;;;;;;;5127913;27;20023;-76
2023/02/13 09:47:29;;;;;;;4.80;3.00;;;;;;;;;;5130419;27;20023;-79
2023/02/13 09:49:58;;;;;;;4.15;2.90;;;;;;;;;;5133326;27;20031;-73
2023/02/13 09:52:26;;;;;;;5.13;2.70;;;;;;;;;;5129844;27;20019;-75
2023/02/13 09:54:52;;;;;;;5.72;3.15;;;;;;;;;;5132567;27;20074;-79
2023/02/13 09:57:18;;;;;;;4.18;2.90;;;;;;;;;;5127631;27;20027;-76
2023/02/13 09:59:47;;;;;;;4.60;2.70;;;;;;;;;;5130061;27;20573;-76
2023/02/13 10:02:22;;;;;;;7.72;2.92;;;;;;;;;;5127582;27;20030;-79
2023/02/13 10:04:51;;;;;;;4.50;2.78;;;;;;;;;;5132194;27;20555;-78
2023/02/13 10:07:22;;;;;;;3.72;2.55;;;;;;;;;;5132219;27;20073;-73
2023/02/13 10:10:02;;;;;;;4.60;2.70;;;;;;;;;;5130307;27;20103;-72
2023/02/13 10:12:52;;;;;;;4.45;2.33;;;;;;;;;;5111842;27;20386;-77
2023/02/13 10:15:28;;;;;;;4.15;2.40;;;;;;;;;;5118158;27;20031;-74
2023/02/13 10:17:58;;;;;;;3.72;2.63;;;;;;;;;;5125815;27;20129;-78
2023/02/13 10:20:37;;;;;;;4.47;2.58;;;;;;;;;;5131657;27;20069;-80
2023/02/13 10:23:16;;;;;;;3.42;2.40;;;;;;;;;;5140803;27;20019;-78
2023/02/13 10:26:02;;;;;;;3.53;2.70;;;;;;;;;;5131530;27;20026;-79
2023/02/13 10:28:31;;;;;;;5.50;2.70;;;;;;;;;;5113141;27;20177;-80
2023/02/13 10:31:02;;;;;;;3.47;2.80;;;;;;;;;;5127546;27;20030;-78
2023/02/13 10:33:42;;;;;;;4.50;2.80;;;;;;;;;;5131235;27;20043;-71
2023/02/13 10:36:11;;;;;;;3.63;2.63;;;;;;;;;;5132954;27;20029;-72
2023/02/13 10:38:44;;;;;;;3.78;2.55;;;;;;;;;;5127559;27;20075;-72
2023/02/13 10:41:17;;;;;;;4.32;2.92;;;;;;;;;;5134188;27;20507;-72
2023/02/13 10:44:09;;;;;;;5.40;3.40;;;;;;;;;;5127558;27;20033;-72
2023/02/13 10:46:45;;;;;;;7.13;3.30;;;;;;;;;;5109675;27;20030;-72
2023/02/13 10:49:14;;;;;;;3.83;2.75;;;;;;;;;;5124394;27;20019;-71
2023/02/13 10:52:03;;;;;;;8.15;4.18;;;;;;;;;;5130570;27;20025;-71
2023/02/13 10:54:38;;;;;;;6.07;3.63;;;;;;;;;;5132243;27;20280;-72
2023/02/13 10:57:04;;;;;;;7.55;3.90;;;;;;;;;;5128608;27;20054;-71
2023/02/13 10:59:33;;;;;;;9.48;4.30;;;;;;;;;;5131095;27;20035;-72
2023/02/13 11:02:11;;;;;;;6.57;4.60;;;;;;;;;;5127531;27;20039;-71
2023/02/13 11:04:40;;;;;;;6.63;4.45;;;;;;;;;;5128710;27;20018;-71
2023/02/13 11:07:12;;;;;;;11.50;4.47;;;;;;;;;;5126612;27;20023;-71
2023/02/13 11:09:40;;;;;;;6.15;4.15;;;;;;;;;;5129158;27;20030;-71
2023/02/13 11:12:33;;;;;;;10.90;5.15;;;;;;;;;;5134307;27;20015;-72
2023/02/13 11:15:00;;;;;;;5.97;4.22;;;;;;;;;;5127132;27;20042;-72
2023/02/13 11:17:28;;;;;;;6.45;4.28;;;;;;;;;;5112228;27;20019;-72
2023/02/13 11:19:59;;;;;;;5.95;4.15;;;;;;;;;;5125798;27;20457;-71
2023/02/13 11:22:32;;;;;;;6.15;4.47;;;;;;;;;;5124255;27;20019;-71
2023/02/13 11:25:18;;;;;;;5.28;3.40;;;;;;;;;;5126906;27;20027;-71
2023/02/13 11:27:44;;;;;;;6.13;3.47;;;;;;;;;;5123420;27;20029;-71
2023/02/13 11:30:33;;;;;;;5.57;4.32;;;;;;;;;;5132385;27;20615;-71
2023/02/13 11:33:01;;;;;;;7.00;3.90;;;;;;;;;;5129992;27;20475;-71
2023/02/13 11:35:32;;;;;;;6.43;3.40;;;;;;;;;;5130381;27;20023;-71
2023/02/13 11:38:22;;;;;;;4.18;3.38;;;;;;;;;;5110916;27;20027;-71
2023/02/13 11:40:52;;;;;;;6.10;4.40;;;;;;;;;;5132112;27;20679;-72
2023/02/13 11:43:29;;;;;;;8.60;4.57;;;;;;;;;;5125631;27;20016;-71
2023/02/13 11:46:08;;;;;;;8.32;4.30;;;;;;;;;;5126507;27;20023;-71
2023/02/13 11:48:34;;;;;;;6.63;5.32;;;;;;;;;;5129260;27;20156;-71
2023/02/13 11:51:01;;;;;;;7.65;5.05;;;;;;;;;;5127067;27;20030;-72
2023/02/13 11:53:32;;;;;;;6.25;4.82;;;;;;;;;;5128870;27;20022;-71
2023/02/13 11:56:04;;;;;;;8.68;4.97;;;;;;;;;;5126760;27;20031;-71
2023/02/13 11:58:30;;;;;;;6.25;4.68;;;;;;;;;;5134252;27;20037;-72
2023/02/13 12:01:11;;;;;;;7.82;4.78;;;;;;;;;;5127632;27;20023;-71
2023/02/13 12:03:37;;;;;;;9.07;5.55;;;;;;;;;;5134057;27;20018;-72
2023/02/13 12:06:06;;;;;;;5.95;4.63;;;;;;;;;;5124314;27;20027;-71
2023/02/13 12:08:35;;;;;;;6.93;4.70;;;;;;;;;;5131204;27;20019;-71
2023/02/13 12:11:02;;;;;;;5.68;4.20;;;;;;;;;;5107136;27;20027;-71
2023/02/13 12:13:33;;;;;;;6.40;3.67;;;;;;;;;;5129220;27;20474;-71
2023/02/13 12:16:02;;;;;;;6.25;4.15;;;;;;;;;;5125140;27;20027;-72
2023/02/13 12:18:31;;;;;;;5.43;4.22;;;;;;;;;;5111528;27;20019;-72
2023/02/13 12:20:57;;;;;;;7.53;4.15;;;;;;;;;;5118688;27;20073;-72
2023/02/13 12:23:23;;;;;;;5.38;4.00;;;;;;;;;;5129363;27;20072;-71
2023/02/13 12:25:52;;;;;;;7.70;4.25;;;;;;;;;;5137634;27;20022;-71
2023/02/13 12:28:19;;;;;;;4.93;3.50;;;;;;;;;;5132867;27;20029;-72
2023/02/13 12:30:45;;;;;;;5.63;3.88;;;;;;;;;;5135848;27;20025;-72
2023/02/13 12:33:17;;;;;;;4.63;3.50;;;;;;;;;;5110112;27;20020;-71
2023/02/13 12:36:09;;;;;;;5.72;3.85;;;;;;;;;;5137387;27;20617;-72
2023/02/13 12:38:35;;;;;;;4.93;3.42;;;;;;;;;;5129141;27;20022;-72
2023/02/13 12:41:13;;;;;;;5.35;3.75;;;;;;;;;;5117761;27;20065;-71
2023/02/13 12:43:46;;;;;;;4.30;3.55;;;;;;;;;;5130012;27;20103;-71
2023/02/13 12:46:18;;;;;;;9.07;3.92;;;;;;;;;;5132902;27;20040;-72
2023/02/13 12:48:44;;;;;;;;;;;;;;;;;;5132168;27;20019;-72
2023/02/13 12:51:29;;;;;;;4.15;3.13;;;;;;;;;;5132838;27;20429;-72
2023/02/13 12:53:55;;;;;;;6.18;3.72;;;;;;;;;;5112444;27;20019;-73
2023/02/13 12:56:24;;;;;;;6.93;3.75;;;;;;;;;;5116773;27;20034;-72
2023/02/13 12:59:14;;;;;;;10.50;4.68;;;;;;;;;;5145366;27;20034;-70
2023/02/13 13:01:59;;;;;;;7.05;3.67;;;;;;;;;;5125912;27;20019;-71
2023/02/13 13:04:34;;;;;;;5.03;3.67;;;;;;;;;;5133858;27;20186;-71
2023/02/13 13:07:00;;;;;;;6.60;3.40;;;;;;;;;;5116574;27;20027;-70
2023/02/13 13:09:42;;;;;;;5.28;3.58;;;;;;;;;;5133520;27;20027;-70
2023/02/13 13:12:21;;;;;;;6.60;4.20;;;;;;;;;;5111779;27;20011;-70
2023/02/13 13:14:53;;;;;;;6.50;3.42;;;;;;;;;;5124107;27;20056;-69
2023/02/13 13:17:32;;;;;;;5.72;3.65;;;;;;;;;;5140188;27;20107;-68
2023/02/13 13:20:13;;;;;;;4.82;3.67;;;;;;;;;;5135434;27;20106;-70
2023/02/13 13:22:39;;;;;;;7.20;3.90;;;;;;;;;;5120662;27;20386;-71
2023/02/13 13:25:14;;;;;;;5.10;3.65;;;;;;;;;;5155244;27;20126;-73
2023/02/13 13:27:43;;;;;;;6.88;3.88;;;;;;;;;;5137634;27;20027;-70
2023/02/13 13:30:24;;;;;;;5.03;3.42;;;;;;;;;;5137683;27;20022;-70
2023/02/13 13:32:53;;;;;;;7.07;3.78;;;;;;;;;;5137620;27;20052;-70
2023/02/13 13:35:20;;;;;;;9.20;4.18;;;;;;;;;;5129296;27;20096;-70
2023/02/13 13:38:01;;;;;;;6.93;4.20;;;;;;;;;;5132513;27;20019;-70
2023/02/13 13:40:53;;;;;;;20.17;5.90;;;;;;;;;;5137746;27;20066;-70
2023/02/13 13:43:28;;;;;;;6.88;4.03;;;;;;;;;;5107850;27;20041;-70
2023/02/13 13:45:57;;;;;;;6.60;3.80;;;;;;;;;;5134222;27;20055;-70
2023/02/13 13:48:33;;;;;;;4.65;3.53;;;;;;;;;;5137761;27;20042;-70
2023/02/13 13:50:59;;;;;;;6.75;3.80;;;;;;;;;;5136199;27;20031;-70
2023/02/13 13:53:25;;;;;;;5.82;3.33;;;;;;;;;;5131864;27;20015;-70
2023/02/13 13:55:51;;;;;;;5.40;3.55;;;;;;;;;;5142716;27;20023;-71
2023/02/13 13:58:20;;;;;;;5.32;3.80;;;;;;;;;;5136408;27;20461;-70
2023/02/13 14:01:06;;;;;;;6.07;3.90;;;;;;;;;;5128697;27;20027;-71
2023/02/13 14:03:36;;;;;;;6.13;3.47;;;;;;;;;;5135881;27;20114;-70
2023/02/13 14:06:04;;;;;;;6.20;3.58;;;;;;;;;;5133955;27;20037;-71
2023/02/13 14:08:39;;;;;;;6.22;3.40;;;;;;;;;;5140730;27;20023;-70
2023/02/13 14:11:07;;;;;;;10.32;3.72;;;;;;;;;;5138295;27;20030;-70
2023/02/13 14:13:38;;;;;;;7.45;3.60;;;;;;;;;;5139773;27;20015;-71
2023/02/13 14:16:05;;;;;;;4.28;3.20;;;;;;;;;;5134763;27;20026;-76
2023/02/13 14:18:31;;;;;;;10.60;4.45;;;;;;;;;;5139155;27;20019;-70
2023/02/13 14:20:59;;;;;;;6.95;3.80;;;;;;;;;;5137795;27;20098;-70
2023/02/13 14:23:48;;;;;;;12.50;4.82;;;;;;;;;;5132033;27;20344;-70
2023/02/13 14:26:14;;;;;;;5.78;3.67;;;;;;;;;;5136474;27;20033;-70
2023/02/13 14:28:47;;;;;;;7.40;3.40;;;;;;;;;;5130720;27;20026;-69
2023/02/13 14:31:34;;;;;;;8.75;3.88;;;;;;;;;;5138296;27;20037;-70
2023/02/13 14:34:02;;;;;;;6.57;3.40;;;;;;;;;;5127611;27;20023;-72
2023/02/13 14:36:32;;;;;;;6.78;3.60;;;;;;;;;;5133483;27;20018;-70
2023/02/13 14:39:00;;;;;;;11.30;4.28;;;;;;;;;;5127951;27;20440;-70
2023/02/13 14:41:43;;;;;;;6.70;4.38;;;;;;;;;;5127775;27;20055;-71
2023/02/13 14:44:35;;;;;;;7.63;4.07;;;;;;;;;;5126267;27;20092;-70
2023/02/13 14:47:03;;;;;;;8.43;3.75;;;;;;;;;;5106454;27;20037;-71
2023/02/13 14:49:31;;;;;;;6.35;3.80;;;;;;;;;;5133059;27;20023;-71
2023/02/13 14:51:58;;;;;;;6.95;4.00;;;;;;;;;;5130666;27;20394;-70
2023/02/13 14:54:38;;;;;;;8.77;4.07;;;;;;;;;;5130149;27;20023;-71
2023/02/13 14:57:13;;;;;;;5.35;3.53;;;;;;;;;;5131756;27;20127;-70
2023/02/13 14:59:43;;;;;;;7.25;3.53;;;;;;;;;;5133245;27;20042;-70
2023/02/13 15:02:16;;;;;;;8.93;3.88;;;;;;;;;;5135067;27;20035;-70
2023/02/13 15:05:01;;;;;;;6.25;3.60;;;;;;;;;;5129001;27;20629;-70
2023/02/13 15:07:33;;;;;;;10.45;4.28;;;;;;;;;;5131113;27;20018;-70
2023/02/13 15:10:04;;;;;;;6.53;3.42;;;;;;;;;;5136820;27;20078;-70
2023/02/13 15:12:32;;;;;;;5.30;3.73;;;;;;;;;;5135602;27;20034;-70
2023/02/13 15:15:02;;;;;;;7.55;4.05;;;;;;;;;;5137111;27;20031;-70
2023/02/13 15:17:31;;;;;;;9.50;4.78;;;;;;;;;;5139284;27;20031;-70
2023/02/13 15:20:16;;;;;;;10.63;4.65;;;;;;;;;;5132284;27;20535;-70
2023/02/13 15:22:45;;;;;;;7.65;4.38;;;;;;;;;;5119509;27;20403;-70
2023/02/13 15:25:29;;;;;;;8.20;4.07;;;;;;;;;;5136379;27;20019;-70
2023/02/13 15:27:57;;;;;;;10.55;4.50;;;;;;;;;;5127537;27;20015;-70
2023/02/13 15:30:31;;;;;;;7.53;4.10;;;;;;;;;;5134072;27;20027;-70
2023/02/13 15:33:12;;;;;;;8.05;4.43;;;;;;;;;;5128488;27;20156;-69
2023/02/13 15:35:39;;;;;;;7.25;3.72;;;;;;;;;;5131090;27;20022;-70
2023/02/13 15:38:19;;;;;;;6.10;3.90;;;;;;;;;;5132655;27;20390;-69
2023/02/13 15:40:45;;;;;;;5.03;3.67;;;;;;;;;;5127402;27;20394;-70
2023/02/13 15:43:21;;;;;;;7.50;4.00;;;;;;;;;;5138880;27;20071;-70